sensor_id;sensor_type;location;lat;lon;timestamp;P1;durP1;ratioP1;P2;durP2;ratioP2
46505;SDS011;32220;49.808;9.968;2024-02-16T08:34:35;5.27;;;4.63;;
46505;SDS011;32220;49.808;9.968;2024-02-16T08:37:03;5.23;;;4.63;;
46505;SDS011;32220;49.808;9.968;2024-02-16T08:39:32;6.23;;;4.57;;
46505;SDS011;32220;49.808;9.968;2024-02-16T08:42:01;5.20;;;4.70;;
46505;SDS011;32220;49.808;9.968;2024-02-16T08:44:29;4.43;;;4.03;;
46505;SDS011;32220;49.808;9.968;2024-02-16T08:46:56;5.03;;;3.80;;
46505;SDS011;32220;49.808;9.968;2024-02-16T08:49:24;7.67;;;3.90;;
46505;SDS011;32220;49.808;9.968;2024-02-16T09:02:54;4.50;;;3.70;;
46505;SDS011;32220;49.808;9.968;2024-02-16T09:05:23;4.20;;;3.47;;
46505;SDS011;32220;49.808;9.968;2024-02-16T09:07:53;4.40;;;3.83;;
46505;SDS011;32220;49.808;9.968;2024-02-16T09:10:20;6.97;;;3.90;;
46505;SDS011;32220;49.808;9.968;2024-02-16T09:12:48;5.43;;;3.70;;
46505;SDS011;32220;49.808;9.968;2024-02-16T09:15:17;4.07;;;3.53;;
46505;SDS011;32220;49.808;9.968;2024-02-16T09:17:45;4.20;;;3.50;;
46505;SDS011;32220;49.808;9.968;2024-02-16T09:20:14;5.27;;;3.63;;
46505;SDS011;32220;49.808;9.968;2024-02-16T09:22:48;3.37;;;3.00;;
46505;SDS011;32220;49.808;9.968;2024-02-16T09:25:17;5.90;;;3.30;;
46505;SDS011;32220;49.808;9.968;2024-02-16T09:27:45;3.73;;;3.37;;
46505;SDS011;32220;49.808;9.968;2024-02-16T09:30:13;3.93;;;3.23;;
46505;SDS011;32220;49.808;9.968;2024-02-16T09:32:40;4.73;;;3.60;;
46505;SDS011;32220;49.808;9.968;2024-02-16T09:35:09;4.33;;;3.50;;
46505;SDS011;32220;49.808;9.968;2024-02-16T09:37:38;3.90;;;3.50;;
46505;SDS011;32220;49.808;9.968;2024-02-16T09:40:06;4.20;;;3.50;;
46505;SDS011;32220;49.808;9.968;2024-02-16T09:42:38;3.73;;;3.40;;
46505;SDS011;32220;49.808;9.968;2024-02-16T09:45:06;4.63;;;3.60;;
46505;SDS011;32220;49.808;9.968;2024-02-16T09:51:00;4.97;;;3.73;;
46505;SDS011;32220;49.808;9.968;2024-02-16T09:53:31;6.17;;;3.77;;
46505;SDS011;32220;49.808;9.968;2024-02-16T09:55:58;4.00;;;3.27;;
46505;SDS011;32220;49.808;9.968;2024-02-16T09:58:29;3.70;;;3.10;;
46505;SDS011;32220;49.808;9.968;2024-02-16T10:00:56;3.47;;;2.93;;
46505;SDS011;32220;49.808;9.968;2024-02-16T10:03:25;5.23;;;2.97;;
46505;SDS011;32220;49.808;9.968;2024-02-16T10:06:04;3.77;;;3.00;;
46505;SDS011;32220;49.808;9.968;2024-02-16T10:08:33;4.40;;;2.87;;
46505;SDS011;32220;49.808;9.968;2024-02-16T10:11:01;4.60;;;3.30;;
46505;SDS011;32220;49.808;9.968;2024-02-16T10:13:31;4.00;;;3.40;;
46505;SDS011;32220;49.808;9.968;2024-02-16T10:16:05;3.40;;;3.07;;
46505;SDS011;32220;49.808;9.968;2024-02-16T10:18:35;3.23;;;2.80;;
46505;SDS011;32220;49.808;9.968;2024-02-16T10:21:03;4.50;;;3.23;;
46505;SDS011;32220;49.808;9.968;2024-02-16T10:23:31;3.63;;;3.23;;
46505;SDS011;32220;49.808;9.968;2024-02-16T10:25:58;4.20;;;2.60;;
46505;SDS011;32220;49.808;9.968;2024-02-16T10:28:27;3.37;;;3.03;;
46505;SDS011;32220;49.808;9.968;2024-02-16T10:30:58;3.67;;;3.07;;
46505;SDS011;32220;49.808;9.968;2024-02-16T10:33:28;2.77;;;2.50;;
46505;SDS011;32220;49.808;9.968;2024-02-16T10:35:56;2.57;;;2.37;;
46505;SDS011;32220;49.808;9.968;2024-02-16T10:38:24;4.63;;;2.47;;
46505;SDS011;32220;49.808;9.968;2024-02-16T10:40:53;2.83;;;2.63;;
46505;SDS011;32220;49.808;9.968;2024-02-16T10:43:25;2.77;;;2.47;;
46505;SDS011;32220;49.808;9.968;2024-02-16T10:45:58;3.93;;;2.80;;
46505;SDS011;32220;49.808;9.968;2024-02-16T10:48:26;3.60;;;3.10;;
46505;SDS011;32220;49.808;9.968;2024-02-16T10:50:54;3.60;;;2.50;;
46505;SDS011;32220;49.808;9.968;2024-02-16T10:53:24;3.53;;;2.73;;
46505;SDS011;32220;49.808;9.968;2024-02-16T10:55:56;4.93;;;2.70;;
46505;SDS011;32220;49.808;9.968;2024-02-16T10:58:26;3.00;;;2.53;;
46505;SDS011;32220;49.808;9.968;2024-02-16T11:00:55;3.53;;;3.10;;
46505;SDS011;32220;49.808;9.968;2024-02-16T11:03:25;2.80;;;2.50;;
46505;SDS011;32220;49.808;9.968;2024-02-16T11:05:53;2.60;;;2.13;;
46505;SDS011;32220;49.808;9.968;2024-02-16T11:08:23;3.43;;;2.20;;
46505;SDS011;32220;49.808;9.968;2024-02-16T11:10:54;3.40;;;2.00;;
46505;SDS011;32220;49.808;9.968;2024-02-16T11:13:22;2.60;;;2.40;;
46505;SDS011;32220;49.808;9.968;2024-02-16T11:15:56;2.83;;;2.30;;
46505;SDS011;32220;49.808;9.968;2024-02-16T11:18:26;3.10;;;2.60;;
46505;SDS011;32220;49.808;9.968;2024-02-16T11:20:54;3.07;;;2.50;;
46505;SDS011;32220;49.808;9.968;2024-02-16T11:23:25;3.40;;;2.37;;
46505;SDS011;32220;49.808;9.968;2024-02-16T11:25:59;2.63;;;2.33;;
46505;SDS011;32220;49.808;9.968;2024-02-16T11:28:28;2.40;;;2.20;;
46505;SDS011;32220;49.808;9.968;2024-02-16T11:30:55;2.20;;;2.00;;
46505;SDS011;32220;49.808;9.968;2024-02-16T11:33:23;2.43;;;2.23;;
46505;SDS011;32220;49.808;9.968;2024-02-16T11:35:55;3.30;;;2.40;;
46505;SDS011;32220;49.808;9.968;2024-02-16T11:38:23;3.17;;;2.60;;
46505;SDS011;32220;49.808;9.968;2024-02-16T11:40:54;3.97;;;2.80;;
46505;SDS011;32220;49.808;9.968;2024-02-16T11:43:23;2.55;;;2.17;;
46505;SDS011;32220;49.808;9.968;2024-02-16T11:45:52;1.88;;;1.67;;
46505;SDS011;32220;49.808;9.968;2024-02-16T11:48:20;1.92;;;1.60;;
46505;SDS011;32220;49.808;9.968;2024-02-16T11:50:49;2.85;;;1.80;;
46505;SDS011;32220;49.808;9.968;2024-02-16T11:53:27;1.25;;;1.15;;
46505;SDS011;32220;49.808;9.968;2024-02-16T11:55:54;1.50;;;1.40;;
46505;SDS011;32220;49.808;9.968;2024-02-16T11:58:22;3.42;;;1.52;;
46505;SDS011;32220;49.808;9.968;2024-02-16T12:00:50;5.20;;;1.50;;
46505;SDS011;32220;49.808;9.968;2024-02-16T12:03:18;1.55;;;1.45;;
46505;SDS011;32220;49.808;9.968;2024-02-16T12:05:51;1.73;;;1.30;;
46505;SDS011;32220;49.808;9.968;2024-02-16T12:08:19;2.17;;;1.50;;
46505;SDS011;32220;49.808;9.968;2024-02-16T12:10:49;2.42;;;1.42;;
46505;SDS011;32220;49.808;9.968;2024-02-16T12:13:17;2.65;;;1.45;;
46505;SDS011;32220;49.808;9.968;2024-02-16T12:15:46;1.98;;;1.45;;
46505;SDS011;32220;49.808;9.968;2024-02-16T12:18:21;1.92;;;1.70;;
46505;SDS011;32220;49.808;9.968;2024-02-16T12:20:58;1.75;;;1.65;;
46505;SDS011;32220;49.808;9.968;2024-02-16T12:23:27;2.10;;;1.70;;
46505;SDS011;32220;49.808;9.968;2024-02-16T12:25:58;1.75;;;1.65;;
46505;SDS011;32220;49.808;9.968;2024-02-16T12:28:26;1.80;;;1.40;;
46505;SDS011;32220;49.808;9.968;2024-02-16T12:30:55;4.03;;;1.52;;
46505;SDS011;32220;49.808;9.968;2024-02-16T12:33:23;1.50;;;1.40;;
46505;SDS011;32220;49.808;9.968;2024-02-16T12:35:53;2.03;;;1.50;;
46505;SDS011;32220;49.808;9.968;2024-02-16T12:38:21;2.63;;;1.38;;
46505;SDS011;32220;49.808;9.968;2024-02-16T12:40:48;1.90;;;1.50;;
46505;SDS011;32220;49.808;9.968;2024-02-16T12:43:20;1.70;;;1.60;;
46505;SDS011;32220;49.808;9.968;2024-02-16T12:45:47;1.70;;;1.50;;
46505;SDS011;32220;49.808;9.968;2024-02-16T12:48:21;2.08;;;1.88;;
46505;SDS011;32220;49.808;9.968;2024-02-16T12:50:50;2.47;;;1.50;;
46505;SDS011;32220;49.808;9.968;2024-02-16T12:53:18;3.50;;;1.60;;
46505;SDS011;32220;49.808;9.968;2024-02-16T12:56:07;1.70;;;1.40;;
46505;SDS011;32220;49.808;9.968;2024-02-16T12:58:55;3.23;;;1.90;;
46505;SDS011;32220;49.808;9.968;2024-02-16T13:01:22;2.27;;;1.50;;
46505;SDS011;32220;49.808;9.968;2024-02-16T13:03:50;2.20;;;1.40;;
46505;SDS011;32220;49.808;9.968;2024-02-16T13:06:17;1.60;;;1.40;;
46505;SDS011;32220;49.808;9.968;2024-02-16T13:08:45;2.10;;;1.80;;
46505;SDS011;32220;49.808;9.968;2024-02-16T13:11:13;3.03;;;1.53;;
46505;SDS011;32220;49.808;9.968;2024-02-16T13:13:40;1.30;;;1.20;;
46505;SDS011;32220;49.808;9.968;2024-02-16T13:16:09;3.60;;;1.50;;
46505;SDS011;32220;49.808;9.968;2024-02-16T13:18:37;3.40;;;1.73;;
46505;SDS011;32220;49.808;9.968;2024-02-16T13:21:05;1.53;;;1.43;;
46505;SDS011;32220;49.808;9.968;2024-02-16T13:23:33;1.60;;;1.40;;
46505;SDS011;32220;49.808;9.968;2024-02-16T13:26:01;2.77;;;1.43;;
46505;SDS011;32220;49.808;9.968;2024-02-16T13:28:30;2.07;;;1.27;;
46505;SDS011;32220;49.808;9.968;2024-02-16T13:30:57;2.73;;;1.57;;
46505;SDS011;32220;49.808;9.968;2024-02-16T13:33:27;5.80;;;1.93;;
46505;SDS011;32220;49.808;9.968;2024-02-16T13:35:55;2.60;;;1.43;;
46505;SDS011;32220;49.808;9.968;2024-02-16T13:38:24;3.63;;;1.30;;
46505;SDS011;32220;49.808;9.968;2024-02-16T13:40:52;2.33;;;1.37;;
46505;SDS011;32220;49.808;9.968;2024-02-16T13:43:20;3.17;;;1.67;;
46505;SDS011;32220;49.808;9.968;2024-02-16T13:45:48;3.37;;;1.73;;
46505;SDS011;32220;49.808;9.968;2024-02-16T13:48:17;1.90;;;1.30;;
46505;SDS011;32220;49.808;9.968;2024-02-16T13:50:47;2.00;;;1.30;;
46505;SDS011;32220;49.808;9.968;2024-02-16T13:53:15;4.43;;;1.73;;
46505;SDS011;32220;49.808;9.968;2024-02-16T13:55:44;1.77;;;1.37;;
46505;SDS011;32220;49.808;9.968;2024-02-16T13:58:11;2.37;;;1.77;;
46505;SDS011;32220;49.808;9.968;2024-02-16T14:00:39;3.17;;;1.60;;
46505;SDS011;32220;49.808;9.968;2024-02-16T14:03:08;3.57;;;1.77;;
46505;SDS011;32220;49.808;9.968;2024-02-16T14:05:37;4.50;;;2.07;;
46505;SDS011;32220;49.808;9.968;2024-02-16T14:08:08;2.57;;;1.77;;
46505;SDS011;32220;49.808;9.968;2024-02-16T14:10:37;1.73;;;1.60;;
46505;SDS011;32220;49.808;9.968;2024-02-16T14:13:22;2.13;;;1.60;;
46505;SDS011;32220;49.808;9.968;2024-02-16T14:15:50;2.00;;;1.40;;
46505;SDS011;32220;49.808;9.968;2024-02-16T14:18:18;1.40;;;1.30;;
46505;SDS011;32220;49.808;9.968;2024-02-16T14:20:45;1.90;;;1.70;;
46505;SDS011;32220;49.808;9.968;2024-02-16T14:23:15;2.63;;;1.53;;
46505;SDS011;32220;49.808;9.968;2024-02-16T14:25:42;2.47;;;1.80;;
46505;SDS011;32220;49.808;9.968;2024-02-16T14:28:11;2.47;;;1.60;;
46505;SDS011;32220;49.808;9.968;2024-02-16T14:30:39;3.53;;;1.80;;
46505;SDS011;32220;49.808;9.968;2024-02-16T14:33:07;1.80;;;1.20;;
46505;SDS011;32220;49.808;9.968;2024-02-16T14:35:36;3.00;;;1.90;;
46505;SDS011;32220;49.808;9.968;2024-02-16T14:38:03;2.40;;;1.67;;
46505;SDS011;32220;49.808;9.968;2024-02-16T14:40:33;3.23;;;1.77;;
46505;SDS011;32220;49.808;9.968;2024-02-16T14:43:00;1.97;;;1.70;;
46505;SDS011;32220;49.808;9.968;2024-02-16T14:45:28;1.70;;;1.60;;
46505;SDS011;32220;49.808;9.968;2024-02-16T14:47:56;2.87;;;1.60;;
46505;SDS011;32220;49.808;9.968;2024-02-16T14:50:25;2.37;;;2.07;;
46505;SDS011;32220;49.808;9.968;2024-02-16T14:52:53;2.20;;;1.80;;
46505;SDS011;32220;49.808;9.968;2024-02-16T14:55:20;2.13;;;1.67;;
46505;SDS011;32220;49.808;9.968;2024-02-16T14:57:49;3.23;;;1.60;;
46505;SDS011;32220;49.808;9.968;2024-02-16T15:00:17;2.10;;;1.57;;
46505;SDS011;32220;49.808;9.968;2024-02-16T15:02:46;2.53;;;1.60;;
46505;SDS011;32220;49.808;9.968;2024-02-16T15:05:13;2.63;;;1.60;;
46505;SDS011;32220;49.808;9.968;2024-02-16T15:07:41;2.07;;;1.27;;
46505;SDS011;32220;49.808;9.968;2024-02-16T15:10:09;2.40;;;1.70;;
46505;SDS011;32220;49.808;9.968;2024-02-16T15:12:37;3.40;;;1.80;;
46505;SDS011;32220;49.808;9.968;2024-02-16T15:15:09;1.83;;;1.50;;
46505;SDS011;32220;49.808;9.968;2024-02-16T15:17:37;2.20;;;1.63;;
46505;SDS011;32220;49.808;9.968;2024-02-16T15:20:05;1.77;;;1.50;;
46505;SDS011;32220;49.808;9.968;2024-02-16T15:22:33;2.03;;;1.57;;
46505;SDS011;32220;49.808;9.968;2024-02-16T15:25:02;4.00;;;1.60;;
46505;SDS011;32220;49.808;9.968;2024-02-16T15:27:29;2.17;;;1.50;;
46505;SDS011;32220;49.808;9.968;2024-02-16T15:29:57;3.57;;;1.70;;
46505;SDS011;32220;49.808;9.968;2024-02-16T15:32:26;2.97;;;1.53;;
46505;SDS011;32220;49.808;9.968;2024-02-16T15:34:54;1.57;;;1.43;;
46505;SDS011;32220;49.808;9.968;2024-02-16T15:37:22;3.60;;;2.00;;
46505;SDS011;32220;49.808;9.968;2024-02-16T15:39:49;2.10;;;1.67;;
46505;SDS011;32220;49.808;9.968;2024-02-16T15:42:18;1.57;;;1.47;;
46505;SDS011;32220;49.808;9.968;2024-02-16T15:44:46;2.33;;;1.70;;
46505;SDS011;32220;49.808;9.968;2024-02-16T15:47:13;2.53;;;1.60;;
46505;SDS011;32220;49.808;9.968;2024-02-16T15:49:42;3.57;;;1.70;;
46505;SDS011;32220;49.808;9.968;2024-02-16T15:52:10;1.83;;;1.37;;
46505;SDS011;32220;49.808;9.968;2024-02-16T15:54:37;3.67;;;2.10;;
46505;SDS011;32220;49.808;9.968;2024-02-16T15:57:05;3.63;;;2.07;;
46505;SDS011;32220;49.808;9.968;2024-02-16T15:59:33;3.00;;;1.73;;
46505;SDS011;32220;49.808;9.968;2024-02-16T16:02:00;2.90;;;1.60;;
46505;SDS011;32220;49.808;9.968;2024-02-16T16:04:28;2.93;;;1.93;;
46505;SDS011;32220;49.808;9.968;2024-02-16T16:06:58;5.20;;;2.20;;
46505;SDS011;32220;49.808;9.968;2024-02-16T16:09:26;3.13;;;1.93;;
46505;SDS011;32220;49.808;9.968;2024-02-16T16:11:54;4.43;;;1.63;;
46505;SDS011;32220;49.808;9.968;2024-02-16T16:14:21;3.23;;;2.03;;
46505;SDS011;32220;49.808;9.968;2024-02-16T16:16:48;3.67;;;1.90;;
46505;SDS011;32220;49.808;9.968;2024-02-16T16:19:19;2.47;;;1.97;;
46505;SDS011;32220;49.808;9.968;2024-02-16T16:21:47;3.80;;;2.17;;
46505;SDS011;32220;49.808;9.968;2024-02-16T16:24:17;6.80;;;3.67;;
46505;SDS011;32220;49.808;9.968;2024-02-16T16:26:44;3.70;;;2.43;;
46505;SDS011;32220;49.808;9.968;2024-02-16T16:29:14;4.77;;;2.00;;
46505;SDS011;32220;49.808;9.968;2024-02-16T16:31:42;4.23;;;1.93;;
46505;SDS011;32220;49.808;9.968;2024-02-16T16:34:10;2.50;;;1.90;;
46505;SDS011;32220;49.808;9.968;2024-02-16T16:36:38;3.97;;;2.10;;
46505;SDS011;32220;49.808;9.968;2024-02-16T16:39:06;3.63;;;1.90;;
46505;SDS011;32220;49.808;9.968;2024-02-16T16:41:35;4.50;;;1.80;;
46505;SDS011;32220;49.808;9.968;2024-02-16T16:44:04;3.70;;;1.97;;
46505;SDS011;32220;49.808;9.968;2024-02-16T16:46:31;4.67;;;1.90;;
46505;SDS011;32220;49.808;9.968;2024-02-16T16:48:59;3.23;;;2.03;;
46505;SDS011;32220;49.808;9.968;2024-02-16T16:51:26;3.47;;;1.90;;
46505;SDS011;32220;49.808;9.968;2024-02-16T16:53:54;7.40;;;2.00;;
46505;SDS011;32220;49.808;9.968;2024-02-16T16:56:21;2.47;;;1.80;;
46505;SDS011;32220;49.808;9.968;2024-02-16T16:58:51;4.73;;;2.43;;
46505;SDS011;32220;49.808;9.968;2024-02-16T17:01:18;3.47;;;2.17;;
46505;SDS011;32220;49.808;9.968;2024-02-16T17:03:46;5.20;;;3.13;;
46505;SDS011;32220;49.808;9.968;2024-02-16T17:06:15;3.50;;;2.43;;
46505;SDS011;32220;49.808;9.968;2024-02-16T17:12:37;3.90;;;2.20;;
46505;SDS011;32220;49.808;9.968;2024-02-16T17:34:28;2.97;;;2.20;;
46505;SDS011;32220;49.808;9.968;2024-02-16T17:37:15;3.90;;;2.10;;
46505;SDS011;32220;49.808;9.968;2024-02-16T17:39:50;3.27;;;2.43;;
46505;SDS011;32220;49.808;9.968;2024-02-16T17:42:19;5.30;;;2.60;;
46505;SDS011;32220;49.808;9.968;2024-02-16T17:44:49;4.20;;;2.33;;
46505;SDS011;32220;49.808;9.968;2024-02-16T17:47:20;2.83;;;2.03;;
46505;SDS011;32220;49.808;9.968;2024-02-16T17:49:49;4.13;;;2.20;;
46505;SDS011;32220;49.808;9.968;2024-02-16T17:52:19;4.77;;;2.00;;
46505;SDS011;32220;49.808;9.968;2024-02-16T17:55:10;6.43;;;1.93;;
46505;SDS011;32220;49.808;9.968;2024-02-16T17:57:51;3.87;;;1.87;;
46505;SDS011;32220;49.808;9.968;2024-02-16T18:00:24;5.97;;;2.13;;
46505;SDS011;32220;49.808;9.968;2024-02-16T18:03:01;4.70;;;1.67;;
46505;SDS011;32220;49.808;9.968;2024-02-16T18:05:29;4.83;;;1.90;;
46505;SDS011;32220;49.808;9.968;2024-02-16T18:08:01;4.67;;;2.17;;
46505;SDS011;32220;49.808;9.968;2024-02-16T18:10:37;4.13;;;1.80;;
46505;SDS011;32220;49.808;9.968;2024-02-16T18:16:30;3.87;;;2.00;;
46505;SDS011;32220;49.808;9.968;2024-02-16T18:23:12;5.30;;;1.80;;
46505;SDS011;32220;49.808;9.968;2024-02-16T18:25:40;2.37;;;1.90;;
46505;SDS011;32220;49.808;9.968;2024-02-16T18:28:19;3.27;;;2.17;;
46505;SDS011;32220;49.808;9.968;2024-02-16T18:30:47;3.17;;;1.70;;
46505;SDS011;32220;49.808;9.968;2024-02-16T18:33:15;4.53;;;2.03;;
46505;SDS011;32220;49.808;9.968;2024-02-16T18:35:45;2.87;;;1.80;;
46505;SDS011;32220;49.808;9.968;2024-02-16T18:38:12;4.23;;;2.20;;
46505;SDS011;32220;49.808;9.968;2024-02-16T18:40:41;4.33;;;1.97;;
46505;SDS011;32220;49.808;9.968;2024-02-16T18:43:09;4.53;;;1.73;;
46505;SDS011;32220;49.808;9.968;2024-02-16T18:45:36;4.53;;;2.20;;
46505;SDS011;32220;49.808;9.968;2024-02-16T18:48:04;2.53;;;1.93;;
46505;SDS011;32220;49.808;9.968;2024-02-16T18:50:33;3.07;;;1.87;;
46505;SDS011;32220;49.808;9.968;2024-02-16T18:53:02;3.33;;;1.83;;
46505;SDS011;32220;49.808;9.968;2024-02-16T18:55:30;2.83;;;1.67;;
46505;SDS011;32220;49.808;9.968;2024-02-16T18:57:58;3.73;;;2.37;;
46505;SDS011;32220;49.808;9.968;2024-02-16T19:00:42;4.20;;;2.43;;
46505;SDS011;32220;49.808;9.968;2024-02-16T19:03:10;2.10;;;1.90;;
46505;SDS011;32220;49.808;9.968;2024-02-16T19:05:37;3.63;;;1.60;;
46505;SDS011;32220;49.808;9.968;2024-02-16T19:08:07;5.27;;;2.33;;
46505;SDS011;32220;49.808;9.968;2024-02-16T19:10:35;3.33;;;1.90;;
46505;SDS011;32220;49.808;9.968;2024-02-16T19:13:03;3.13;;;2.03;;
46505;SDS011;32220;49.808;9.968;2024-02-16T19:15:32;2.90;;;1.70;;
46505;SDS011;32220;49.808;9.968;2024-02-16T19:18:00;3.80;;;2.00;;
46505;SDS011;32220;49.808;9.968;2024-02-16T19:20:27;2.87;;;2.10;;
46505;SDS011;32220;49.808;9.968;2024-02-16T19:22:56;3.17;;;1.93;;
46505;SDS011;32220;49.808;9.968;2024-02-16T19:25:26;2.90;;;2.23;;
46505;SDS011;32220;49.808;9.968;2024-02-16T19:27:53;3.83;;;2.00;;
46505;SDS011;32220;49.808;9.968;2024-02-16T19:30:22;4.57;;;2.30;;
46505;SDS011;32220;49.808;9.968;2024-02-16T19:32:49;2.10;;;1.90;;
46505;SDS011;32220;49.808;9.968;2024-02-16T19:35:17;4.13;;;1.60;;
46505;SDS011;32220;49.808;9.968;2024-02-16T19:37:47;4.90;;;1.87;;
46505;SDS011;32220;49.808;9.968;2024-02-16T19:40:17;3.00;;;1.97;;
46505;SDS011;32220;49.808;9.968;2024-02-16T19:42:47;3.03;;;2.23;;
46505;SDS011;32220;49.808;9.968;2024-02-16T19:45:14;5.97;;;2.43;;
46505;SDS011;32220;49.808;9.968;2024-02-16T19:47:53;2.87;;;1.77;;
46505;SDS011;32220;49.808;9.968;2024-02-16T19:50:21;4.50;;;2.10;;
46505;SDS011;32220;49.808;9.968;2024-02-16T19:52:52;3.53;;;2.33;;
46505;SDS011;32220;49.808;9.968;2024-02-16T19:55:23;4.40;;;2.20;;
46505;SDS011;32220;49.808;9.968;2024-02-16T19:57:52;4.73;;;2.67;;
46505;SDS011;32220;49.808;9.968;2024-02-16T20:00:20;4.97;;;2.53;;
46505;SDS011;32220;49.808;9.968;2024-02-16T20:02:47;4.77;;;2.37;;
46505;SDS011;32220;49.808;9.968;2024-02-16T20:05:17;2.47;;;1.90;;
46505;SDS011;32220;49.808;9.968;2024-02-16T20:07:48;2.50;;;1.93;;
46505;SDS011;32220;49.808;9.968;2024-02-16T20:10:16;3.27;;;1.73;;
46505;SDS011;32220;49.808;9.968;2024-02-16T20:12:43;5.47;;;2.20;;
46505;SDS011;32220;49.808;9.968;2024-02-16T20:15:12;5.07;;;2.60;;
46505;SDS011;32220;49.808;9.968;2024-02-16T20:17:41;3.53;;;1.97;;
46505;SDS011;32220;49.808;9.968;2024-02-16T20:20:08;2.47;;;2.20;;
46505;SDS011;32220;49.808;9.968;2024-02-16T20:22:36;3.37;;;2.27;;
46505;SDS011;32220;49.808;9.968;2024-02-16T20:25:05;2.70;;;2.27;;
46505;SDS011;32220;49.808;9.968;2024-02-16T20:27:33;2.97;;;1.87;;
46505;SDS011;32220;49.808;9.968;2024-02-16T20:30:01;4.37;;;2.20;;
46505;SDS011;32220;49.808;9.968;2024-02-16T20:32:30;3.67;;;2.53;;
46505;SDS011;32220;49.808;9.968;2024-02-16T20:34:58;3.80;;;2.03;;
46505;SDS011;32220;49.808;9.968;2024-02-16T20:37:30;2.17;;;1.90;;
46505;SDS011;32220;49.808;9.968;2024-02-16T20:39:58;3.87;;;2.10;;
46505;SDS011;32220;49.808;9.968;2024-02-16T20:42:25;4.53;;;2.80;;
46505;SDS011;32220;49.808;9.968;2024-02-16T20:44:53;4.50;;;2.77;;
46505;SDS011;32220;49.808;9.968;2024-02-16T20:47:21;4.80;;;2.30;;
46505;SDS011;32220;49.808;9.968;2024-02-16T20:49:50;3.00;;;2.13;;
46505;SDS011;32220;49.808;9.968;2024-02-16T20:52:17;3.67;;;2.30;;
46505;SDS011;32220;49.808;9.968;2024-02-16T20:54:45;4.83;;;2.60;;
46505;SDS011;32220;49.808;9.968;2024-02-16T20:57:12;2.53;;;2.03;;
46505;SDS011;32220;49.808;9.968;2024-02-16T20:59:40;2.60;;;2.40;;
46505;SDS011;32220;49.808;9.968;2024-02-16T21:02:08;2.57;;;1.97;;
46505;SDS011;32220;49.808;9.968;2024-02-16T21:04:35;3.50;;;2.47;;
46505;SDS011;32220;49.808;9.968;2024-02-16T21:07:05;2.37;;;2.13;;
46505;SDS011;32220;49.808;9.968;2024-02-16T21:09:32;2.57;;;2.17;;
46505;SDS011;32220;49.808;9.968;2024-02-16T21:12:00;5.60;;;2.33;;
46505;SDS011;32220;49.808;9.968;2024-02-16T21:14:27;2.60;;;2.40;;
46505;SDS011;32220;49.808;9.968;2024-02-16T21:16:55;4.00;;;2.23;;
46505;SDS011;32220;49.808;9.968;2024-02-16T21:19:23;4.40;;;2.70;;
46505;SDS011;32220;49.808;9.968;2024-02-16T21:21:51;3.80;;;2.30;;
46505;SDS011;32220;49.808;9.968;2024-02-16T21:24:21;3.47;;;2.53;;
46505;SDS011;32220;49.808;9.968;2024-02-16T21:26:49;3.77;;;2.60;;
46505;SDS011;32220;49.808;9.968;2024-02-16T21:29:17;3.17;;;2.60;;
46505;SDS011;32220;49.808;9.968;2024-02-16T21:31:45;2.93;;;2.33;;
46505;SDS011;32220;49.808;9.968;2024-02-16T21:34:13;3.97;;;2.53;;
46505;SDS011;32220;49.808;9.968;2024-02-16T21:36:41;3.70;;;2.30;;
46505;SDS011;32220;49.808;9.968;2024-02-16T21:39:08;4.17;;;2.07;;
46505;SDS011;32220;49.808;9.968;2024-02-16T21:41:38;2.90;;;2.17;;
46505;SDS011;32220;49.808;9.968;2024-02-16T21:44:05;1.90;;;1.80;;
46505;SDS011;32220;49.808;9.968;2024-02-16T21:46:33;2.67;;;1.90;;
46505;SDS011;32220;49.808;9.968;2024-02-16T21:49:02;2.10;;;2.00;;
46505;SDS011;32220;49.808;9.968;2024-02-16T21:51:30;4.33;;;2.77;;
46505;SDS011;32220;49.808;9.968;2024-02-16T21:54:00;3.83;;;2.30;;
46505;SDS011;32220;49.808;9.968;2024-02-16T21:56:28;2.63;;;1.90;;
46505;SDS011;32220;49.808;9.968;2024-02-16T21:58:57;3.33;;;1.93;;
46505;SDS011;32220;49.808;9.968;2024-02-16T22:01:26;2.60;;;1.80;;
46505;SDS011;32220;49.808;9.968;2024-02-16T22:03:54;2.80;;;2.10;;
46505;SDS011;32220;49.808;9.968;2024-02-16T22:06:22;2.20;;;1.83;;
46505;SDS011;32220;49.808;9.968;2024-02-16T22:08:51;1.93;;;1.50;;
46505;SDS011;32220;49.808;9.968;2024-02-16T22:11:20;2.93;;;1.97;;
46505;SDS011;32220;49.808;9.968;2024-02-16T22:13:48;2.00;;;1.80;;
46505;SDS011;32220;49.808;9.968;2024-02-16T22:16:18;1.90;;;1.70;;
46505;SDS011;32220;49.808;9.968;2024-02-16T22:18:47;1.70;;;1.40;;
46505;SDS011;32220;49.808;9.968;2024-02-16T22:21:16;1.70;;;1.60;;
46505;SDS011;32220;49.808;9.968;2024-02-16T22:23:44;1.87;;;1.50;;
46505;SDS011;32220;49.808;9.968;2024-02-16T22:26:11;1.80;;;1.63;;
46505;SDS011;32220;49.808;9.968;2024-02-16T22:28:39;3.97;;;2.10;;
46505;SDS011;32220;49.808;9.968;2024-02-16T22:31:07;1.70;;;1.60;;
46505;SDS011;32220;49.808;9.968;2024-02-16T22:33:37;1.63;;;1.37;;
46505;SDS011;32220;49.808;9.968;2024-02-16T22:36:05;2.23;;;1.60;;
46505;SDS011;32220;49.808;9.968;2024-02-16T22:38:34;1.70;;;1.40;;
46505;SDS011;32220;49.808;9.968;2024-02-16T22:41:01;2.17;;;1.80;;
46505;SDS011;32220;49.808;9.968;2024-02-16T22:43:32;3.70;;;2.10;;
46505;SDS011;32220;49.808;9.968;2024-02-16T22:46:00;2.07;;;1.50;;
46505;SDS011;32220;49.808;9.968;2024-02-16T22:48:29;2.10;;;1.40;;
46505;SDS011;32220;49.808;9.968;2024-02-16T22:50:59;2.10;;;1.57;;
46505;SDS011;32220;49.808;9.968;2024-02-16T22:53:28;2.37;;;1.50;;
46505;SDS011;32220;49.808;9.968;2024-02-16T22:56:04;1.60;;;1.30;;
46505;SDS011;32220;49.808;9.968;2024-02-16T22:58:33;1.80;;;1.37;;
46505;SDS011;32220;49.808;9.968;2024-02-16T23:01:01;2.47;;;1.50;;
46505;SDS011;32220;49.808;9.968;2024-02-16T23:03:28;1.67;;;1.57;;
46505;SDS011;32220;49.808;9.968;2024-02-16T23:05:56;2.63;;;2.00;;
46505;SDS011;32220;49.808;9.968;2024-02-16T23:08:30;1.90;;;1.50;;
46505;SDS011;32220;49.808;9.968;2024-02-16T23:11:10;2.80;;;1.60;;
46505;SDS011;32220;49.808;9.968;2024-02-16T23:13:42;1.70;;;1.60;;
46505;SDS011;32220;49.808;9.968;2024-02-16T23:16:10;2.03;;;1.50;;
46505;SDS011;32220;49.808;9.968;2024-02-16T23:18:38;1.80;;;1.70;;
46505;SDS011;32220;49.808;9.968;2024-02-16T23:21:05;2.00;;;1.47;;
46505;SDS011;32220;49.808;9.968;2024-02-16T23:23:35;4.43;;;1.60;;
46505;SDS011;32220;49.808;9.968;2024-02-16T23:26:03;2.33;;;1.40;;
46505;SDS011;32220;49.808;9.968;2024-02-16T23:28:32;2.10;;;1.90;;
46505;SDS011;32220;49.808;9.968;2024-02-16T23:31:00;2.13;;;1.60;;
46505;SDS011;32220;49.808;9.968;2024-02-16T23:33:28;2.67;;;2.03;;
46505;SDS011;32220;49.808;9.968;2024-02-16T23:35:56;2.00;;;1.50;;
46505;SDS011;32220;49.808;9.968;2024-02-16T23:38:23;2.93;;;2.30;;
46505;SDS011;32220;49.808;9.968;2024-02-16T23:40:53;3.17;;;1.70;;
46505;SDS011;32220;49.808;9.968;2024-02-16T23:43:20;2.10;;;1.53;;
46505;SDS011;32220;49.808;9.968;2024-02-16T23:45:48;1.97;;;1.70;;
46505;SDS011;32220;49.808;9.968;2024-02-16T23:48:16;1.57;;;1.47;;
46505;SDS011;32220;49.808;9.968;2024-02-16T23:50:44;1.43;;;1.33;;
46505;SDS011;32220;49.808;9.968;2024-02-16T23:53:11;1.90;;;1.57;;
46505;SDS011;32220;49.808;9.968;2024-02-16T23:55:39;1.43;;;1.30;;
46505;SDS011;32220;49.808;9.968;2024-02-16T23:58:08;2.43;;;1.60;;
